sensor_id;sensor_type;location;lat;lon;timestamp;pressure;altitude;pressure_sealevel;temperature;humidity
70323;BME280;57735;56.264;43.898;2024-02-28T00:01:11;102348.88;;;-5.30;52.49
70323;BME280;57735;56.264;43.898;2024-02-28T00:03:42;102348.88;;;-5.30;52.65
70323;BME280;57735;56.264;43.898;2024-02-28T00:06:16;102360.13;;;-5.31;52.66
70323;BME280;57735;56.264;43.898;2024-02-28T00:08:47;102348.88;;;-5.31;52.65
70323;BME280;57735;56.264;43.898;2024-02-28T00:11:17;102347.13;;;-5.32;52.61
70323;BME280;57735;56.264;43.898;2024-02-28T00:13:48;102344.53;;;-5.35;52.87
70323;BME280;57735;56.264;43.898;2024-02-28T00:16:19;102336.75;;;-5.35;52.75
70323;BME280;57735;56.264;43.898;2024-02-28T00:18:52;102337.63;;;-5.33;52.74
70323;BME280;57735;56.264;43.898;2024-02-28T00:21:23;102339.34;;;-5.34;52.58
70323;BME280;57735;56.264;43.898;2024-02-28T00:23:56;102342.81;;;-5.35;52.47
70323;BME280;57735;56.264;43.898;2024-02-28T00:26:30;102343.69;;;-5.36;52.40
70323;BME280;57735;56.264;43.898;2024-02-28T00:29:00;102343.69;;;-5.34;52.95
70323;BME280;57735;56.264;43.898;2024-02-28T00:31:31;102337.63;;;-5.33;52.89
70323;BME280;57735;56.264;43.898;2024-02-28T00:34:02;102337.63;;;-5.32;52.42
70323;BME280;57735;56.264;43.898;2024-02-28T00:36:33;102333.28;;;-5.30;52.55
70323;BME280;57735;56.264;43.898;2024-02-28T00:39:04;102334.13;;;-5.24;52.24
70323;BME280;57735;56.264;43.898;2024-02-28T00:41:35;102329.81;;;-5.25;52.15
70323;BME280;57735;56.264;43.898;2024-02-28T00:44:08;102340.19;;;-5.25;52.40
70323;BME280;57735;56.264;43.898;2024-02-28T00:46:42;102341.06;;;-5.25;52.18
70323;BME280;57735;56.264;43.898;2024-02-28T00:49:13;102338.47;;;-5.25;52.08
70323;BME280;57735;56.264;43.898;2024-02-28T00:51:45;102341.06;;;-5.27;52.06
70323;BME280;57735;56.264;43.898;2024-02-28T00:54:16;102335.88;;;-5.30;52.64
70323;BME280;57735;56.264;43.898;2024-02-28T00:56:47;102337.63;;;-5.33;52.13
70323;BME280;57735;56.264;43.898;2024-02-28T00:59:20;102338.47;;;-5.34;52.32
70323;BME280;57735;56.264;43.898;2024-02-28T01:01:53;102329.00;;;-5.37;51.96
70323;BME280;57735;56.264;43.898;2024-02-28T01:04:24;102333.31;;;-5.39;52.43
70323;BME280;57735;56.264;43.898;2024-02-28T01:06:55;102345.44;;;-5.38;52.26
70323;BME280;57735;56.264;43.898;2024-02-28T01:09:25;102345.44;;;-5.39;51.99
70323;BME280;57735;56.264;43.898;2024-02-28T01:11:56;102343.72;;;-5.40;52.14
70323;BME280;57735;56.264;43.898;2024-02-28T01:14:27;102346.31;;;-5.42;52.19
70323;BME280;57735;56.264;43.898;2024-02-28T01:16:58;102352.38;;;-5.41;52.23
70323;BME280;57735;56.264;43.898;2024-02-28T01:19:29;102338.53;;;-5.43;51.84
70323;BME280;57735;56.264;43.898;2024-02-28T01:22:02;102349.78;;;-5.43;52.17
70323;BME280;57735;56.264;43.898;2024-02-28T01:24:36;102343.72;;;-5.45;52.10
70323;BME280;57735;56.264;43.898;2024-02-28T01:27:10;102347.19;;;-5.49;52.10
70323;BME280;57735;56.264;43.898;2024-02-28T01:29:41;102350.66;;;-5.53;52.21
70323;BME280;57735;56.264;43.898;2024-02-28T01:32:14;102343.75;;;-5.54;52.14
70323;BME280;57735;56.264;43.898;2024-02-28T01:34:45;102342.03;;;-5.58;52.28
70323;BME280;57735;56.264;43.898;2024-02-28T01:37:16;102342.91;;;-5.62;52.17
70323;BME280;57735;56.264;43.898;2024-02-28T01:39:47;102347.22;;;-5.64;52.10
70323;BME280;57735;56.264;43.898;2024-02-28T01:42:18;102339.44;;;-5.67;51.82
70323;BME280;57735;56.264;43.898;2024-02-28T01:44:49;102335.97;;;-5.69;52.01
70323;BME280;57735;56.264;43.898;2024-02-28T01:47:23;102338.59;;;-5.72;51.94
70323;BME280;57735;56.264;43.898;2024-02-28T01:49:54;102335.13;;;-5.74;52.24
70323;BME280;57735;56.264;43.898;2024-02-28T01:52:27;102334.28;;;-5.78;52.35
70323;BME280;57735;56.264;43.898;2024-02-28T01:54:59;102336.88;;;-5.82;52.34
70323;BME280;57735;56.264;43.898;2024-02-28T01:57:29;102336.88;;;-5.84;52.11
70323;BME280;57735;56.264;43.898;2024-02-28T02:00:01;102331.69;;;-5.87;52.27
70323;BME280;57735;56.264;43.898;2024-02-28T02:02:31;102331.66;;;-5.85;52.34
70323;BME280;57735;56.264;43.898;2024-02-28T02:05:03;102322.16;;;-5.86;52.45
70323;BME280;57735;56.264;43.898;2024-02-28T02:07:35;102310.94;;;-5.87;52.10
70323;BME280;57735;56.264;43.898;2024-02-28T02:10:06;102310.94;;;-5.87;52.76
70323;BME280;57735;56.264;43.898;2024-02-28T02:12:39;102324.81;;;-5.89;52.71
70323;BME280;57735;56.264;43.898;2024-02-28T02:15:10;102326.53;;;-5.94;52.50
70323;BME280;57735;56.264;43.898;2024-02-28T02:17:41;102317.00;;;-6.00;52.63
70323;BME280;57735;56.264;43.898;2024-02-28T02:20:14;102311.84;;;-6.05;52.86
70323;BME280;57735;56.264;43.898;2024-02-28T02:22:46;102313.56;;;-6.10;52.89
70323;BME280;57735;56.264;43.898;2024-02-28T02:25:17;102303.19;;;-6.11;52.86
70323;BME280;57735;56.264;43.898;2024-02-28T02:27:49;102305.78;;;-6.11;52.63
70323;BME280;57735;56.264;43.898;2024-02-28T02:30:21;102313.56;;;-6.08;52.59
70323;BME280;57735;56.264;43.898;2024-02-28T02:32:52;102310.97;;;-6.07;52.61
70323;BME280;57735;56.264;43.898;2024-02-28T02:35:23;102307.53;;;-6.06;52.65
70323;BME280;57735;56.264;43.898;2024-02-28T02:37:54;102315.31;;;-6.06;52.80
70323;BME280;57735;56.264;43.898;2024-02-28T02:40:25;102309.25;;;-6.05;52.56
70323;BME280;57735;56.264;43.898;2024-02-28T02:42:56;102303.19;;;-6.07;52.49
70323;BME280;57735;56.264;43.898;2024-02-28T02:45:27;102305.78;;;-6.05;52.10
70323;BME280;57735;56.264;43.898;2024-02-28T02:47:57;102305.78;;;-6.05;52.75
70323;BME280;57735;56.264;43.898;2024-02-28T02:50:28;102298.00;;;-6.07;52.75
70323;BME280;57735;56.264;43.898;2024-02-28T02:52:59;102296.28;;;-6.08;52.17
70323;BME280;57735;56.264;43.898;2024-02-28T02:55:30;102290.22;;;-6.07;52.43
70323;BME280;57735;56.264;43.898;2024-02-28T02:58:04;102284.16;;;-6.06;52.14
70323;BME280;57735;56.264;43.898;2024-02-28T03:00:34;102278.06;;;-6.03;52.25
70323;BME280;57735;56.264;43.898;2024-02-28T03:03:05;102285.00;;;-6.02;52.08
70323;BME280;57735;56.264;43.898;2024-02-28T03:05:36;102282.41;;;-6.01;51.74
70323;BME280;57735;56.264;43.898;2024-02-28T03:08:07;102277.22;;;-5.99;51.42
70323;BME280;57735;56.264;43.898;2024-02-28T03:10:40;102285.88;;;-5.99;51.75
70323;BME280;57735;56.264;43.898;2024-02-28T03:13:11;102280.66;;;-5.97;51.44
70323;BME280;57735;56.264;43.898;2024-02-28T03:15:41;102288.47;;;-5.95;51.08
70323;BME280;57735;56.264;43.898;2024-02-28T03:18:15;102282.41;;;-5.94;51.28
70323;BME280;57735;56.264;43.898;2024-02-28T03:20:51;102274.63;;;-5.96;51.24
70323;BME280;57735;56.264;43.898;2024-02-28T03:23:22;102274.63;;;-5.97;50.97
70323;BME280;57735;56.264;43.898;2024-02-28T03:25:53;102273.75;;;-5.98;51.03
70323;BME280;57735;56.264;43.898;2024-02-28T03:28:24;102271.16;;;-6.01;51.51
70323;BME280;57735;56.264;43.898;2024-02-28T03:30:55;102264.22;;;-6.02;51.30
70323;BME280;57735;56.264;43.898;2024-02-28T03:33:25;102268.56;;;-6.03;51.29
70323;BME280;57735;56.264;43.898;2024-02-28T03:35:56;102262.50;;;-6.03;50.95
70323;BME280;57735;56.264;43.898;2024-02-28T03:38:27;102262.53;;;-6.06;51.58
70323;BME280;57735;56.264;43.898;2024-02-28T03:40:58;102266.84;;;-6.07;51.33
70323;BME280;57735;56.264;43.898;2024-02-28T03:43:29;102269.44;;;-6.07;51.38
70323;BME280;57735;56.264;43.898;2024-02-28T03:46:00;102272.03;;;-6.10;51.43
70323;BME280;57735;56.264;43.898;2024-02-28T03:48:30;102261.66;;;-6.10;51.64
70323;BME280;57735;56.264;43.898;2024-02-28T03:51:01;102263.41;;;-6.09;51.66
70323;BME280;57735;56.264;43.898;2024-02-28T03:53:32;102266.84;;;-6.11;51.94
70323;BME280;57735;56.264;43.898;2024-02-28T03:56:03;102265.13;;;-6.14;51.82
70323;BME280;57735;56.264;43.898;2024-02-28T03:58:35;102262.53;;;-6.15;51.46
70323;BME280;57735;56.264;43.898;2024-02-28T04:01:06;102257.34;;;-6.15;51.71
70323;BME280;57735;56.264;43.898;2024-02-28T04:03:37;102258.19;;;-6.15;51.29
70323;BME280;57735;56.264;43.898;2024-02-28T04:06:07;102250.41;;;-6.16;51.48
70323;BME280;57735;56.264;43.898;2024-02-28T04:08:40;102250.41;;;-6.13;51.18
70323;BME280;57735;56.264;43.898;2024-02-28T04:11:11;102246.09;;;-6.11;51.01
70323;BME280;57735;56.264;43.898;2024-02-28T04:13:42;102246.09;;;-6.14;51.39
70323;BME280;57735;56.264;43.898;2024-02-28T04:16:13;102246.09;;;-6.16;51.55
70323;BME280;57735;56.264;43.898;2024-02-28T04:18:44;102247.81;;;-6.18;51.68
70323;BME280;57735;56.264;43.898;2024-02-28T04:21:14;102243.50;;;-6.19;51.60
70323;BME280;57735;56.264;43.898;2024-02-28T04:23:48;102251.31;;;-6.20;51.81
70323;BME280;57735;56.264;43.898;2024-02-28T04:26:19;102254.78;;;-6.21;52.03
70323;BME280;57735;56.264;43.898;2024-02-28T04:28:52;102265.16;;;-6.23;52.38
70323;BME280;57735;56.264;43.898;2024-02-28T04:31:23;102272.94;;;-6.21;52.29
70323;BME280;57735;56.264;43.898;2024-02-28T04:33:53;102269.47;;;-6.20;52.63
70323;BME280;57735;56.264;43.898;2024-02-28T04:36:24;102275.50;;;-6.17;52.79
70323;BME280;57735;56.264;43.898;2024-02-28T04:38:55;102256.47;;;-6.17;52.91
70323;BME280;57735;56.264;43.898;2024-02-28T04:41:27;102263.41;;;-6.15;52.71
70323;BME280;57735;56.264;43.898;2024-02-28T04:43:58;102255.59;;;-6.13;52.49
70323;BME280;57735;56.264;43.898;2024-02-28T04:46:29;102269.44;;;-6.10;52.33
70323;BME280;57735;56.264;43.898;2024-02-28T04:48:59;102269.44;;;-6.07;52.55
70323;BME280;57735;56.264;43.898;2024-02-28T04:51:30;102274.63;;;-6.02;52.53
70323;BME280;57735;56.264;43.898;2024-02-28T04:54:01;102284.13;;;-5.98;52.23
70323;BME280;57735;56.264;43.898;2024-02-28T04:56:32;102270.28;;;-5.92;51.94
70323;BME280;57735;56.264;43.898;2024-02-28T04:59:03;102260.72;;;-5.87;51.91
70323;BME280;57735;56.264;43.898;2024-02-28T05:01:33;102265.03;;;-5.83;51.75
70323;BME280;57735;56.264;43.898;2024-02-28T05:04:06;102265.03;;;-5.76;51.84
70323;BME280;57735;56.264;43.898;2024-02-28T05:06:37;102234.72;;;-5.74;51.88
70323;BME280;57735;56.264;43.898;2024-02-28T05:09:08;102241.59;;;-5.68;51.93
70323;BME280;57735;56.264;43.898;2024-02-28T05:11:39;102244.19;;;-5.64;52.00
70323;BME280;57735;56.264;43.898;2024-02-28T05:14:10;102239.00;;;-5.56;51.65
70323;BME280;57735;56.264;43.898;2024-02-28T05:16:41;102245.00;;;-5.51;51.87
70323;BME280;57735;56.264;43.898;2024-02-28T05:19:12;102233.75;;;-5.47;50.99
70323;BME280;57735;56.264;43.898;2024-02-28T05:21:44;102233.72;;;-5.41;51.50
70323;BME280;57735;56.264;43.898;2024-02-28T05:24:15;102238.91;;;-5.38;51.40
70323;BME280;57735;56.264;43.898;2024-02-28T05:26:47;102236.31;;;-5.38;50.99
70323;BME280;57735;56.264;43.898;2024-02-28T05:29:17;102230.25;;;-5.37;51.50
70323;BME280;57735;56.264;43.898;2024-02-28T05:31:48;102227.66;;;-5.37;51.22
70323;BME280;57735;56.264;43.898;2024-02-28T05:34:19;102230.25;;;-5.37;51.01
70323;BME280;57735;56.264;43.898;2024-02-28T05:36:50;102231.06;;;-5.33;51.36
70323;BME280;57735;56.264;43.898;2024-02-28T05:39:21;102228.44;;;-5.27;51.48
70323;BME280;57735;56.264;43.898;2024-02-28T05:41:55;102219.78;;;-5.28;51.00
70323;BME280;57735;56.264;43.898;2024-02-28T05:44:26;102221.53;;;-5.30;51.26
70323;BME280;57735;56.264;43.898;2024-02-28T05:46:57;102212.84;;;-5.29;51.30
70323;BME280;57735;56.264;43.898;2024-02-28T05:49:27;102216.31;;;-5.28;51.03
70323;BME280;57735;56.264;43.898;2024-02-28T05:51:58;102213.72;;;-5.23;51.22
70323;BME280;57735;56.264;43.898;2024-02-28T05:54:29;102220.56;;;-5.15;51.17
70323;BME280;57735;56.264;43.898;2024-02-28T05:57:00;102225.75;;;-5.07;51.14
70323;BME280;57735;56.264;43.898;2024-02-28T05:59:31;102226.56;;;-5.02;51.12
70323;BME280;57735;56.264;43.898;2024-02-28T06:02:03;102225.66;;;-4.94;51.09
70323;BME280;57735;56.264;43.898;2024-02-28T06:04:37;102216.94;;;-4.86;50.87
70323;BME280;57735;56.264;43.898;2024-02-28T06:07:08;102220.31;;;-4.75;51.13
70323;BME280;57735;56.264;43.898;2024-02-28T06:09:39;102214.22;;;-4.70;50.30
70323;BME280;57735;56.264;43.898;2024-02-28T06:12:09;102203.81;;;-4.70;50.47
70323;BME280;57735;56.264;43.898;2024-02-28T06:14:40;102210.69;;;-4.64;50.25
70323;BME280;57735;56.264;43.898;2024-02-28T06:17:13;102216.69;;;-4.56;50.34
70323;BME280;57735;56.264;43.898;2024-02-28T06:19:44;102210.63;;;-4.57;50.45
70323;BME280;57735;56.264;43.898;2024-02-28T06:22:15;102214.97;;;-4.59;50.14
70323;BME280;57735;56.264;43.898;2024-02-28T06:24:49;102202.75;;;-4.50;50.40
70323;BME280;57735;56.264;43.898;2024-02-28T06:27:22;102206.19;;;-4.47;50.45
70323;BME280;57735;56.264;43.898;2024-02-28T06:29:53;102213.97;;;-4.42;50.16
70323;BME280;57735;56.264;43.898;2024-02-28T06:32:24;102209.63;;;-4.40;50.18
70323;BME280;57735;56.264;43.898;2024-02-28T06:34:55;102215.59;;;-4.34;50.34
70323;BME280;57735;56.264;43.898;2024-02-28T06:37:26;102215.56;;;-4.29;50.11
70323;BME280;57735;56.264;43.898;2024-02-28T06:39:58;102210.28;;;-4.20;49.95
70323;BME280;57735;56.264;43.898;2024-02-28T06:42:29;102209.34;;;-4.13;49.58
70323;BME280;57735;56.264;43.898;2024-02-28T06:45:00;102216.22;;;-4.06;49.68
70323;BME280;57735;56.264;43.898;2024-02-28T06:47:31;102211.81;;;-4.01;49.65
70323;BME280;57735;56.264;43.898;2024-02-28T06:50:04;102207.41;;;-3.96;49.75
70323;BME280;57735;56.264;43.898;2024-02-28T06:52:36;102216.00;;;-3.86;49.55
70323;BME280;57735;56.264;43.898;2024-02-28T06:55:09;102200.34;;;-3.84;49.66
70323;BME280;57735;56.264;43.898;2024-02-28T06:57:44;102202.00;;;-3.76;49.94
70323;BME280;57735;56.264;43.898;2024-02-28T07:00:15;102207.16;;;-3.71;49.65
70323;BME280;57735;56.264;43.898;2024-02-28T07:02:47;102211.38;;;-3.64;48.95
70323;BME280;57735;56.264;43.898;2024-02-28T07:05:17;102211.31;;;-3.57;48.81
70323;BME280;57735;56.264;43.898;2024-02-28T07:07:50;102199.16;;;-3.58;48.71
70323;BME280;57735;56.264;43.898;2024-02-28T07:10:24;102210.34;;;-3.49;48.90
70323;BME280;57735;56.264;43.898;2024-02-28T07:12:55;102212.88;;;-3.45;48.91
70323;BME280;57735;56.264;43.898;2024-02-28T07:15:26;102205.91;;;-3.41;49.37
70323;BME280;57735;56.264;43.898;2024-02-28T07:17:57;102206.75;;;-3.39;48.81
70323;BME280;57735;56.264;43.898;2024-02-28T07:20:27;102202.25;;;-3.30;48.97
70323;BME280;57735;56.264;43.898;2024-02-28T07:22:58;102187.22;;;-3.12;49.40
70323;BME280;57735;56.264;43.898;2024-02-28T07:25:29;102195.84;;;-3.06;48.39
70323;BME280;57735;56.264;43.898;2024-02-28T07:28:03;102194.97;;;-3.06;48.67
70323;BME280;57735;56.264;43.898;2024-02-28T07:30:34;102193.09;;;-2.98;49.11
70323;BME280;57735;56.264;43.898;2024-02-28T07:33:06;102176.53;;;-2.94;48.45
70323;BME280;57735;56.264;43.898;2024-02-28T07:35:51;102171.25;;;-2.91;48.86
70323;BME280;57735;56.264;43.898;2024-02-28T07:38:23;102175.56;;;-2.87;48.35
70323;BME280;57735;56.264;43.898;2024-02-28T07:40:58;102175.44;;;-2.81;48.49
70323;BME280;57735;56.264;43.898;2024-02-28T07:43:29;102164.88;;;-2.72;48.72
70323;BME280;57735;56.264;43.898;2024-02-28T07:46:09;102165.56;;;-2.64;48.32
70323;BME280;57735;56.264;43.898;2024-02-28T07:48:41;102166.38;;;-2.59;47.87
70323;BME280;57735;56.264;43.898;2024-02-28T07:51:12;102155.75;;;-2.50;48.05
70323;BME280;57735;56.264;43.898;2024-02-28T07:53:43;102147.13;;;-2.52;48.06
70323;BME280;57735;56.264;43.898;2024-02-28T07:56:18;102152.22;;;-2.46;48.27
70323;BME280;57735;56.264;43.898;2024-02-28T07:58:49;102146.97;;;-2.44;47.82
70323;BME280;57735;56.264;43.898;2024-02-28T08:01:22;102142.56;;;-2.40;47.70
70323;BME280;57735;56.264;43.898;2024-02-28T08:03:55;102131.88;;;-2.28;48.25
70323;BME280;57735;56.264;43.898;2024-02-28T08:06:25;102156.09;;;-2.19;47.86
70323;BME280;57735;56.264;43.898;2024-02-28T08:08:56;102143.94;;;-2.21;47.68
70323;BME280;57735;56.264;43.898;2024-02-28T08:11:27;102152.66;;;-2.22;47.61
70323;BME280;57735;56.264;43.898;2024-02-28T08:14:03;102152.53;;;-2.16;47.79
70323;BME280;57735;56.264;43.898;2024-02-28T08:16:34;102142.81;;;-2.08;47.84
70323;BME280;57735;56.264;43.898;2024-02-28T08:19:05;102145.19;;;-1.97;48.11
70323;BME280;57735;56.264;43.898;2024-02-28T08:21:36;102136.41;;;-1.93;47.65
70323;BME280;57735;56.264;43.898;2024-02-28T08:24:06;102140.59;;;-1.85;47.44
70323;BME280;57735;56.264;43.898;2024-02-28T08:26:37;102134.34;;;-1.78;47.42
70323;BME280;57735;56.264;43.898;2024-02-28T08:29:09;102135.22;;;-1.79;47.08
70323;BME280;57735;56.264;43.898;2024-02-28T08:31:43;102130.84;;;-1.78;47.32
70323;BME280;57735;56.264;43.898;2024-02-28T08:34:14;102140.19;;;-1.66;47.71
70323;BME280;57735;56.264;43.898;2024-02-28T08:36:45;102133.16;;;-1.64;47.10
70323;BME280;57735;56.264;43.898;2024-02-28T08:39:16;102125.25;;;-1.60;47.46
70323;BME280;57735;56.264;43.898;2024-02-28T08:41:47;102133.00;;;-1.55;47.47
70323;BME280;57735;56.264;43.898;2024-02-28T08:44:19;102124.94;;;-1.46;46.94
70323;BME280;57735;56.264;43.898;2024-02-28T08:46:52;102131.00;;;-1.44;47.20
70323;BME280;57735;56.264;43.898;2024-02-28T08:49:26;102126.53;;;-1.39;47.02
70323;BME280;57735;56.264;43.898;2024-02-28T08:51:58;102125.59;;;-1.36;47.14
70323;BME280;57735;56.264;43.898;2024-02-28T08:54:29;102127.06;;;-1.25;47.04
70323;BME280;57735;56.264;43.898;2024-02-28T08:57:00;102118.19;;;-1.18;47.28
70323;BME280;57735;56.264;43.898;2024-02-28T08:59:31;102115.41;;;-1.12;47.23
70323;BME280;57735;56.264;43.898;2024-02-28T09:02:02;102113.47;;;-1.03;46.83
70323;BME280;57735;56.264;43.898;2024-02-28T09:04:34;102116.81;;;-0.98;46.82
70323;BME280;57735;56.264;43.898;2024-02-28T09:07:05;102113.16;;;-0.91;47.47
70323;BME280;57735;56.264;43.898;2024-02-28T09:09:42;102103.44;;;-0.86;47.15
70323;BME280;57735;56.264;43.898;2024-02-28T09:12:15;102106.63;;;-0.74;47.05
70323;BME280;57735;56.264;43.898;2024-02-28T09:14:46;102099.44;;;-0.67;46.75
70323;BME280;57735;56.264;43.898;2024-02-28T09:17:19;102102.75;;;-0.60;46.56
70323;BME280;57735;56.264;43.898;2024-02-28T09:19:50;102103.50;;;-0.55;46.29
70323;BME280;57735;56.264;43.898;2024-02-28T09:22:22;102092.19;;;-0.56;46.92
70323;BME280;57735;56.264;43.898;2024-02-28T09:24:54;102098.16;;;-0.51;46.70
70323;BME280;57735;56.264;43.898;2024-02-28T09:27:25;102086.69;;;-0.47;46.68
70323;BME280;57735;56.264;43.898;2024-02-28T09:30:04;102095.44;;;-0.48;46.57
70323;BME280;57735;56.264;43.898;2024-02-28T09:32:36;102089.09;;;-0.39;46.74
70323;BME280;57735;56.264;43.898;2024-02-28T09:35:10;102088.84;;;-0.30;46.38
70323;BME280;57735;56.264;43.898;2024-02-28T09:37:41;102082.53;;;-0.23;46.06
70323;BME280;57735;56.264;43.898;2024-02-28T09:40:12;102073.81;;;-0.23;46.54
70323;BME280;57735;56.264;43.898;2024-02-28T09:42:47;102068.50;;;-0.20;46.49
70323;BME280;57735;56.264;43.898;2024-02-28T09:45:23;102068.19;;;-0.10;46.54
70323;BME280;57735;56.264;43.898;2024-02-28T09:47:58;102066.22;;;-0.02;46.76
70323;BME280;57735;56.264;43.898;2024-02-28T09:50:30;102074.16;;;-0.05;46.03
70323;BME280;57735;56.264;43.898;2024-02-28T09:53:01;102058.56;;;-0.09;46.03
70323;BME280;57735;56.264;43.898;2024-02-28T09:55:32;102060.31;;;-0.10;46.24
70323;BME280;57735;56.264;43.898;2024-02-28T09:58:07;102064.00;;;-0.17;46.03
70323;BME280;57735;56.264;43.898;2024-02-28T10:00:40;102048.16;;;-0.12;46.30
70323;BME280;57735;56.264;43.898;2024-02-28T10:03:18;102054.03;;;-0.04;46.35
70323;BME280;57735;56.264;43.898;2024-02-28T10:05:53;102047.41;;;0.14;46.42
70323;BME280;57735;56.264;43.898;2024-02-28T10:08:24;102057.63;;;0.21;46.26
70323;BME280;57735;56.264;43.898;2024-02-28T10:10:54;102051.75;;;0.43;46.21
70323;BME280;57735;56.264;43.898;2024-02-28T10:13:26;102055.25;;;0.69;45.94
70323;BME280;57735;56.264;43.898;2024-02-28T10:16:00;102055.31;;;0.94;45.09
70323;BME280;57735;56.264;43.898;2024-02-28T10:18:34;102052.59;;;0.97;44.89
70323;BME280;57735;56.264;43.898;2024-02-28T10:21:05;102044.13;;;1.14;44.79
70323;BME280;57735;56.264;43.898;2024-02-28T10:23:36;102045.13;;;1.35;44.42
70323;BME280;57735;56.264;43.898;2024-02-28T10:26:11;102047.97;;;1.54;44.66
70323;BME280;57735;56.264;43.898;2024-02-28T10:28:42;102047.88;;;1.57;44.04
70323;BME280;57735;56.264;43.898;2024-02-28T10:31:14;102047.91;;;1.55;43.88
70323;BME280;57735;56.264;43.898;2024-02-28T10:33:45;102044.78;;;1.46;43.57
70323;BME280;57735;56.264;43.898;2024-02-28T10:36:16;102043.69;;;1.51;44.20
70323;BME280;57735;56.264;43.898;2024-02-28T10:38:47;102028.00;;;1.50;44.42
70323;BME280;57735;56.264;43.898;2024-02-28T10:41:20;102032.41;;;1.49;43.48
70323;BME280;57735;56.264;43.898;2024-02-28T10:43:51;102021.22;;;1.43;44.07
70323;BME280;57735;56.264;43.898;2024-02-28T10:46:24;102023.22;;;1.36;44.61
70323;BME280;57735;56.264;43.898;2024-02-28T10:48:56;102019.72;;;1.35;44.63
70323;BME280;57735;56.264;43.898;2024-02-28T10:51:28;102023.00;;;1.42;44.50
70323;BME280;57735;56.264;43.898;2024-02-28T10:54:10;102013.66;;;1.58;45.00
70323;BME280;57735;56.264;43.898;2024-02-28T10:56:44;102013.06;;;1.73;44.41
70323;BME280;57735;56.264;43.898;2024-02-28T10:59:15;102023.13;;;1.86;43.86
70323;BME280;57735;56.264;43.898;2024-02-28T11:01:46;102014.91;;;1.95;43.85
70323;BME280;57735;56.264;43.898;2024-02-28T11:04:18;102009.66;;;1.95;44.84
70323;BME280;57735;56.264;43.898;2024-02-28T11:09:24;102011.69;;;1.87;44.28
70323;BME280;57735;56.264;43.898;2024-02-28T11:11:59;102012.59;;;1.86;44.43
70323;BME280;57735;56.264;43.898;2024-02-28T11:14:30;102007.50;;;1.83;44.67
70323;BME280;57735;56.264;43.898;2024-02-28T11:17:04;102009.31;;;1.81;44.59
70323;BME280;57735;56.264;43.898;2024-02-28T11:19:38;102011.03;;;1.82;45.80
70323;BME280;57735;56.264;43.898;2024-02-28T11:22:10;102016.69;;;1.94;45.26
70323;BME280;57735;56.264;43.898;2024-02-28T11:24:44;102012.97;;;2.00;45.57
70323;BME280;57735;56.264;43.898;2024-02-28T11:27:15;102009.13;;;2.08;44.92
70323;BME280;57735;56.264;43.898;2024-02-28T11:29:46;102014.25;;;2.12;45.16
70323;BME280;57735;56.264;43.898;2024-02-28T11:32:19;102013.28;;;2.14;44.95
70323;BME280;57735;56.264;43.898;2024-02-28T11:34:53;102009.25;;;2.27;44.53
70323;BME280;57735;56.264;43.898;2024-02-28T11:37:24;102009.44;;;2.44;44.84
70323;BME280;57735;56.264;43.898;2024-02-28T11:40:02;102004.16;;;2.66;44.52
70323;BME280;57735;56.264;43.898;2024-02-28T11:42:38;101997.13;;;2.87;44.20
70323;BME280;57735;56.264;43.898;2024-02-28T11:45:10;101992.97;;;3.02;43.49
70323;BME280;57735;56.264;43.898;2024-02-28T11:47:41;101996.34;;;3.26;42.89
70323;BME280;57735;56.264;43.898;2024-02-28T11:50:14;101987.91;;;3.57;42.96
70323;BME280;57735;56.264;43.898;2024-02-28T11:52:45;101985.16;;;3.78;42.78
70323;BME280;57735;56.264;43.898;2024-02-28T11:55:16;101987.88;;;3.96;41.93
70323;BME280;57735;56.264;43.898;2024-02-28T11:57:49;101991.00;;;4.04;41.98
70323;BME280;57735;56.264;43.898;2024-02-28T12:00:21;101987.88;;;4.14;41.94
70323;BME280;57735;56.264;43.898;2024-02-28T12:02:52;101979.34;;;4.27;42.13
70323;BME280;57735;56.264;43.898;2024-02-28T12:05:24;101983.00;;;4.24;42.24
70323;BME280;57735;56.264;43.898;2024-02-28T12:08:18;101965.84;;;4.15;42.50
70323;BME280;57735;56.264;43.898;2024-02-28T12:10:51;101976.47;;;4.14;42.47
70323;BME280;57735;56.264;43.898;2024-02-28T12:13:22;101971.47;;;4.08;42.47
70323;BME280;57735;56.264;43.898;2024-02-28T12:15:55;101960.50;;;3.98;42.74
70323;BME280;57735;56.264;43.898;2024-02-28T12:18:26;101974.34;;;3.84;43.04
70323;BME280;57735;56.264;43.898;2024-02-28T12:20:58;101954.66;;;3.73;43.24
70323;BME280;57735;56.264;43.898;2024-02-28T12:23:29;101956.56;;;3.69;43.35
70323;BME280;57735;56.264;43.898;2024-02-28T12:26:01;101959.50;;;3.63;43.19
70323;BME280;57735;56.264;43.898;2024-02-28T12:28:31;101956.22;;;3.58;43.18
70323;BME280;57735;56.264;43.898;2024-02-28T12:31:02;101951.88;;;3.57;43.89
70323;BME280;57735;56.264;43.898;2024-02-28T12:33:38;101957.34;;;3.53;43.82
70323;BME280;57735;56.264;43.898;2024-02-28T12:36:08;101946.78;;;3.53;44.10
70323;BME280;57735;56.264;43.898;2024-02-28T12:38:41;101948.50;;;3.54;44.01
70323;BME280;57735;56.264;43.898;2024-02-28T12:41:12;101944.94;;;3.55;44.01
70323;BME280;57735;56.264;43.898;2024-02-28T12:43:44;101944.25;;;3.51;44.16
70323;BME280;57735;56.264;43.898;2024-02-28T12:46:15;101945.94;;;3.52;44.28
70323;BME280;57735;56.264;43.898;2024-02-28T12:48:47;101945.94;;;3.52;44.73
70323;BME280;57735;56.264;43.898;2024-02-28T12:51:45;101937.84;;;3.57;44.34
70323;BME280;57735;56.264;43.898;2024-02-28T12:54:16;101944.94;;;3.55;44.58
70323;BME280;57735;56.264;43.898;2024-02-28T12:56:50;101939.13;;;3.48;44.90
70323;BME280;57735;56.264;43.898;2024-02-28T12:59:23;101925.03;;;3.49;44.59
70323;BME280;57735;56.264;43.898;2024-02-28T13:01:59;101932.84;;;3.50;45.10
70323;BME280;57735;56.264;43.898;2024-02-28T13:04:29;101928.56;;;3.48;45.16
70323;BME280;57735;56.264;43.898;2024-02-28T13:07:00;101930.34;;;3.47;45.43
70323;BME280;57735;56.264;43.898;2024-02-28T13:09:31;101922.94;;;3.56;45.16